createdAt,value
2022-08-26T00:00:00.610Z,0.19999999999999998
2022-08-26T00:01:00.246Z,0.4666666666666666
2022-08-26T00:01:59.897Z,0.3833333333333333
2022-08-26T00:03:00.119Z,0.23888888888888887
2022-08-26T00:03:59.981Z,0.2638888888888889
2022-08-26T00:04:59.743Z,0.6361111111111111
2022-08-26T00:06:01.497Z,0.19999999999999998
2022-08-26T00:07:01.178Z,0.23888888888888887
2022-08-26T00:08:01.279Z,0.08055555555555555
2022-08-26T00:09:00.982Z,0.11944444444444444
2022-08-26T00:10:00.607Z,0.15833333333333333
2022-08-26T00:11:00.283Z,0
2022-08-26T00:12:00.609Z,0.19999999999999998
2022-08-26T00:13:00.332Z,0.23888888888888887
2022-08-26T00:14:00.154Z,0.23888888888888887
2022-08-26T00:14:59.899Z,0.08055555555555555
2022-08-26T00:16:00.020Z,0.1388888888888889
2022-08-26T00:16:59.764Z,0.31666666666666665
2022-08-26T00:18:01.581Z,0.19999999999999998
2022-08-26T00:19:00.720Z,0.2777777777777778
2022-08-26T00:20:00.459Z,0.41388888888888886
2022-08-26T00:21:00.127Z,0.3972222222222222
2022-08-26T00:22:01.230Z,0.15833333333333333
2022-08-26T00:23:01.674Z,0.19999999999999998
2022-08-26T00:24:00.982Z,0.19999999999999998
2022-08-26T00:25:00.884Z,0.35833333333333334
2022-08-26T00:26:00.588Z,0.19999999999999998
2022-08-26T00:27:01.303Z,0.35833333333333334
2022-08-26T00:28:01.196Z,0.31666666666666665
2022-08-26T00:29:01.085Z,0.29444444444444445
2022-08-26T00:30:00.931Z,0.31666666666666665
2022-08-26T00:31:00.818Z,0.19999999999999998
2022-08-26T00:32:00.702Z,0.4361111111111111
2022-08-26T00:33:00.509Z,0.11111111111111112
2022-08-26T00:34:01.262Z,0.2777777777777778
2022-08-26T00:35:01.049Z,0.23888888888888887
2022-08-26T00:36:00.949Z,0.2777777777777778
2022-08-26T00:37:00.665Z,0.15833333333333333
2022-08-26T00:38:00.332Z,0.23888888888888887
2022-08-26T00:39:01.086Z,0.25
2022-08-26T00:40:01.161Z,0.31666666666666665
2022-08-26T00:41:00.812Z,0.23888888888888887
2022-08-26T00:42:00.621Z,0.23888888888888887
2022-08-26T00:43:00.378Z,0.15833333333333333
2022-08-26T00:44:00.110Z,0.2916666666666667
2022-08-26T00:45:00.408Z,0.34444444444444444
2022-08-26T00:46:00.159Z,0.15833333333333333
2022-08-26T00:47:01.327Z,0.2777777777777778
2022-08-26T00:48:01.076Z,0.23888888888888887
2022-08-26T00:49:01.892Z,0.31666666666666665
2022-08-26T00:50:01.492Z,0.3055555555555556
2022-08-26T00:51:00.782Z,0.19999999999999998
2022-08-26T00:52:00.453Z,0.23888888888888887
2022-08-26T00:53:00.158Z,0.22222222222222224
2022-08-26T00:53:59.942Z,0.23888888888888887
2022-08-26T00:54:59.654Z,0.21944444444444444
2022-08-26T00:56:01.388Z,0.23888888888888887
2022-08-26T00:57:01.194Z,0.19999999999999998
2022-08-26T00:58:01.095Z,0.11944444444444444
2022-08-26T00:59:01.291Z,0.20277777777777778
2022-08-26T01:00:00.809Z,0.23888888888888887
2022-08-26T01:01:00.640Z,0.19999999999999998
2022-08-26T01:02:00.509Z,0.31666666666666665
2022-08-26T01:03:01.431Z,0.21666666666666667
2022-08-26T01:04:01.588Z,0
2022-08-26T01:05:01.353Z,0
2022-08-26T01:06:01.149Z,0
2022-08-26T01:07:00.797Z,0
2022-08-26T01:08:00.611Z,0
2022-08-26T01:09:00.664Z,0
2022-08-26T01:10:00.381Z,0
2022-08-26T01:11:00.478Z,0
2022-08-26T01:12:00.221Z,0
2022-08-26T01:13:00.086Z,0
2022-08-26T01:13:59.841Z,0
2022-08-26T01:15:01.635Z,0
2022-08-26T01:16:01.585Z,0
2022-08-26T01:17:00.933Z,0
2022-08-26T01:18:00.742Z,0
2022-08-26T01:19:01.140Z,0
2022-08-26T01:20:01.399Z,0
2022-08-26T01:21:01.159Z,0
2022-08-26T01:22:00.882Z,0
2022-08-26T01:23:01.480Z,0
2022-08-26T01:24:00.696Z,0.08055555555555555
2022-08-26T01:25:00.422Z,0.10555555555555556
2022-08-26T01:26:02.599Z,0.18888888888888888
2022-08-26T01:27:00.989Z,0
2022-08-26T01:28:04.513Z,0.03888888888888889
2022-08-26T01:29:00.675Z,0.15833333333333333
2022-08-26T01:30:01.145Z,0.2777777777777778
2022-08-26T01:31:01.141Z,0.03888888888888889
2022-08-26T01:32:00.939Z,0
2022-08-26T01:33:08.698Z,0
2022-08-26T01:34:01.244Z,0.19999999999999998
2022-08-26T01:35:00.624Z,0.2777777777777778
2022-08-26T01:36:00.471Z,0.23888888888888887
2022-08-26T01:37:00.246Z,0.2777777777777778
2022-08-26T01:38:10.488Z,0.19999999999999998
2022-08-26T01:39:01.073Z,0.15833333333333333
2022-08-26T01:40:01.220Z,0
2022-08-26T01:41:01.024Z,0.19999999999999998
2022-08-26T01:42:03.173Z,0.08055555555555555
2022-08-26T01:43:15.352Z,0.2777777777777778
2022-08-26T01:44:01.481Z,0.15833333333333333
2022-08-26T01:45:01.337Z,0.03888888888888889
2022-08-26T01:46:01.440Z,0.08055555555555555
2022-08-26T01:47:01.130Z,0.03888888888888889
2022-08-26T01:48:00.738Z,0.19999999999999998
2022-08-26T01:49:01.020Z,0.2972222222222222
2022-08-26T01:50:00.757Z,0
2022-08-26T01:51:00.433Z,0
2022-08-26T01:52:00.128Z,0
2022-08-26T01:52:59.826Z,0
2022-08-26T01:54:01.763Z,0
2022-08-26T01:55:01.593Z,0
2022-08-26T01:56:01.277Z,0
2022-08-26T01:57:00.980Z,0
2022-08-26T01:58:01.007Z,0
2022-08-26T01:59:00.651Z,0
2022-08-26T02:00:00.628Z,0.19999999999999998
2022-08-26T02:01:00.309Z,0.08055555555555555
2022-08-26T02:02:01.229Z,0
2022-08-26T02:03:01.064Z,0
2022-08-26T02:04:01.837Z,0.11944444444444444
2022-08-26T02:05:00.837Z,0
2022-08-26T02:06:00.964Z,0
2022-08-26T02:07:00.651Z,0
2022-08-26T02:08:00.364Z,0
2022-08-26T02:09:00.031Z,0
2022-08-26T02:10:01.016Z,0
2022-08-26T02:11:00.668Z,0
2022-08-26T02:12:01.108Z,0
2022-08-26T02:13:01.378Z,0
2022-08-26T02:14:01.208Z,0
2022-08-26T02:15:00.870Z,0
2022-08-26T02:16:00.699Z,0
2022-08-26T02:17:00.611Z,0
2022-08-26T02:18:00.322Z,0
2022-08-26T02:19:00.017Z,0
2022-08-26T02:20:00.242Z,0
2022-08-26T02:20:59.975Z,0
2022-08-26T02:22:00.373Z,0
2022-08-26T02:23:00.688Z,0
2022-08-26T02:24:00.609Z,0
2022-08-26T02:25:00.371Z,0.08055555555555555
2022-08-26T02:26:01.810Z,0
2022-08-26T02:27:01.469Z,0
2022-08-26T02:28:01.183Z,0.03888888888888889
2022-08-26T02:29:01.208Z,0.03888888888888889
2022-08-26T02:30:00.690Z,0
2022-08-26T02:31:02.675Z,0.08055555555555555
2022-08-26T02:32:00.809Z,0
2022-08-26T02:33:00.937Z,0
2022-08-26T02:34:00.731Z,0
2022-08-26T02:35:00.432Z,0.03888888888888889
2022-08-26T02:36:00.131Z,0
2022-08-26T02:37:00.110Z,0
2022-08-26T02:38:00.643Z,0
2022-08-26T02:39:01.351Z,0
2022-08-26T02:40:01.479Z,0
2022-08-26T02:41:01.360Z,0
2022-08-26T02:42:00.996Z,0
2022-08-26T02:43:00.775Z,0
2022-08-26T02:44:00.697Z,0
2022-08-26T02:45:00.342Z,0
2022-08-26T02:46:01.910Z,0
2022-08-26T02:47:01.507Z,0
2022-08-26T02:48:01.125Z,0
2022-08-26T02:49:01.342Z,0
2022-08-26T02:50:01.030Z,0
2022-08-26T02:51:00.739Z,0
2022-08-26T02:52:00.428Z,0
2022-08-26T02:53:01.438Z,0
2022-08-26T02:54:01.777Z,0
2022-08-26T02:55:01.182Z,0
2022-08-26T02:56:01.497Z,0
2022-08-26T02:57:01.178Z,0
2022-08-26T02:58:01.282Z,0
2022-08-26T02:59:00.927Z,0
2022-08-26T03:00:00.713Z,0
2022-08-26T03:01:01.517Z,0
2022-08-26T03:02:00.843Z,0
2022-08-26T03:03:00.604Z,0
2022-08-26T03:04:01.008Z,0
2022-08-26T03:05:02.467Z,0.07222222222222223
2022-08-26T03:06:01.547Z,0
2022-08-26T03:07:02.059Z,0
2022-08-26T03:08:01.267Z,0
2022-08-26T03:09:04.102Z,0
2022-08-26T03:10:01.605Z,0
2022-08-26T03:11:01.514Z,0
2022-08-26T03:12:01.073Z,0
2022-08-26T03:13:01.563Z,0
2022-08-26T03:14:07.422Z,0
2022-08-26T03:15:00.984Z,0.03888888888888889
2022-08-26T03:16:00.714Z,0
2022-08-26T03:17:00.487Z,0
2022-08-26T03:18:00.257Z,0
2022-08-26T03:19:11.374Z,0
2022-08-26T03:20:01.023Z,0
2022-08-26T03:21:01.131Z,0
2022-08-26T03:22:00.833Z,0.03888888888888889
2022-08-26T03:23:00.539Z,0.03888888888888889
2022-08-26T03:24:14.110Z,0
2022-08-26T03:25:01.315Z,0
2022-08-26T03:26:01.025Z,0.05833333333333333
2022-08-26T03:27:00.774Z,0
2022-08-26T03:28:01.134Z,0
2022-08-26T03:29:00.665Z,0
2022-08-26T03:30:00.415Z,0
2022-08-26T03:31:01.231Z,0
2022-08-26T03:32:00.946Z,0
2022-08-26T03:33:01.032Z,0
2022-08-26T03:34:00.754Z,0
2022-08-26T03:35:00.643Z,0
2022-08-26T03:36:00.712Z,0
2022-08-26T03:37:00.428Z,0
2022-08-26T03:38:00.119Z,0
2022-08-26T03:39:01.148Z,0
2022-08-26T03:40:01.025Z,0
2022-08-26T03:41:00.731Z,0
2022-08-26T03:42:00.627Z,0
2022-08-26T03:43:00.266Z,0
2022-08-26T03:44:01.958Z,0
2022-08-26T03:45:00.775Z,0
2022-08-26T03:46:00.451Z,0
2022-08-26T03:47:00.461Z,0
2022-08-26T03:48:00.187Z,0
2022-08-26T03:49:01.122Z,0
2022-08-26T03:50:00.832Z,0
2022-08-26T03:51:00.730Z,0
2022-08-26T03:52:01.453Z,0.03888888888888889
2022-08-26T03:53:00.856Z,0
2022-08-26T03:54:00.500Z,0
2022-08-26T03:55:01.074Z,0
2022-08-26T03:56:01.271Z,0
2022-08-26T03:57:00.855Z,0
2022-08-26T03:58:00.664Z,0
2022-08-26T03:59:01.144Z,0
2022-08-26T04:00:01.446Z,0
2022-08-26T04:01:00.998Z,0
2022-08-26T04:02:00.879Z,0
2022-08-26T04:03:00.584Z,0
2022-08-26T04:04:00.853Z,0
2022-08-26T04:05:00.662Z,0
2022-08-26T04:06:00.416Z,0
2022-08-26T04:07:00.048Z,0
2022-08-26T04:07:59.794Z,0
2022-08-26T04:09:01.730Z,0
2022-08-26T04:10:01.462Z,0
2022-08-26T04:11:01.364Z,0
2022-08-26T04:12:01.270Z,0
2022-08-26T04:13:01.335Z,0
2022-08-26T04:14:00.882Z,0
2022-08-26T04:15:00.670Z,0
2022-08-26T04:16:00.696Z,0
2022-08-26T04:17:01.301Z,0.07222222222222223
2022-08-26T04:18:00.988Z,0
2022-08-26T04:19:00.636Z,0
2022-08-26T04:20:00.698Z,0
2022-08-26T04:21:00.455Z,0
2022-08-26T04:22:00.234Z,0
2022-08-26T04:23:00.780Z,0
2022-08-26T04:24:00.488Z,0
2022-08-26T04:25:01.464Z,0
2022-08-26T04:26:01.373Z,0
2022-08-26T04:27:01.051Z,0
2022-08-26T04:28:01.172Z,0
2022-08-26T04:29:00.778Z,0
2022-08-26T04:30:00.695Z,0
2022-08-26T04:31:00.690Z,0
2022-08-26T04:32:00.723Z,0
2022-08-26T04:33:01.746Z,0
2022-08-26T04:34:01.313Z,0
2022-08-26T04:35:01.128Z,0
2022-08-26T04:36:00.958Z,0
2022-08-26T04:37:00.923Z,0
2022-08-26T04:38:00.734Z,0
2022-08-26T04:39:00.426Z,0
2022-08-26T04:40:00.245Z,0
2022-08-26T04:41:00.143Z,0
2022-08-26T04:41:59.862Z,0
2022-08-26T04:43:00.801Z,0
2022-08-26T04:44:00.702Z,0
2022-08-26T04:45:00.367Z,0
2022-08-26T04:46:00.157Z,0
2022-08-26T04:47:00.751Z,0
2022-08-26T04:48:00.471Z,0
2022-08-26T04:49:00.196Z,0
2022-08-26T04:50:01.854Z,0
2022-08-26T04:51:01.121Z,0
2022-08-26T04:52:01.176Z,0
2022-08-26T04:53:00.808Z,0
2022-08-26T04:54:00.446Z,0
2022-08-26T04:55:04.095Z,0
2022-08-26T04:56:01.140Z,0
2022-08-26T04:57:01.017Z,0
2022-08-26T04:58:00.703Z,0
2022-08-26T04:59:00.369Z,0
2022-08-26T05:00:06.275Z,0
2022-08-26T05:01:01.289Z,0
2022-08-26T05:02:00.986Z,0
2022-08-26T05:03:01.419Z,0
2022-08-26T05:04:01.191Z,0
2022-08-26T05:05:07.210Z,0
2022-08-26T05:06:00.901Z,0
2022-08-26T05:07:02.742Z,0
2022-08-26T05:08:00.628Z,0
2022-08-26T05:09:00.459Z,0
2022-08-26T05:10:11.441Z,0
2022-08-26T05:11:01.148Z,0
2022-08-26T05:12:01.193Z,0
2022-08-26T05:13:00.870Z,0
2022-08-26T05:14:02.276Z,0
2022-08-26T05:15:10.906Z,0
2022-08-26T05:16:01.527Z,0
2022-08-26T05:17:00.574Z,0
2022-08-26T05:18:01.202Z,0
2022-08-26T05:19:00.598Z,0
2022-08-26T05:20:13.801Z,0
2022-08-26T05:21:01.202Z,0
2022-08-26T05:22:00.900Z,0
2022-08-26T05:23:00.605Z,0
2022-08-26T05:24:00.304Z,0
2022-08-26T05:25:00.004Z,0
2022-08-26T05:26:00.404Z,0
2022-08-26T05:27:00.496Z,0
2022-08-26T05:28:00.523Z,0
2022-08-26T05:29:00.244Z,0
2022-08-26T05:29:59.861Z,0
2022-08-26T05:31:01.016Z,0
2022-08-26T05:32:00.978Z,0.03888888888888889
2022-08-26T05:33:01.019Z,0
2022-08-26T05:34:03.689Z,0
2022-08-26T05:35:01.411Z,0
2022-08-26T05:36:00.593Z,0
2022-08-26T05:37:00.304Z,0
2022-08-26T05:38:00.674Z,0
2022-08-26T05:39:00.414Z,0.03888888888888889
2022-08-26T05:40:01.516Z,0.23888888888888887
2022-08-26T05:41:01.117Z,0.06944444444444445
2022-08-26T05:42:00.845Z,0.5166666666666667
2022-08-26T05:43:00.855Z,0.03888888888888889
2022-08-26T05:44:00.952Z,0.11944444444444444
2022-08-26T05:45:00.643Z,0.19999999999999998
2022-08-26T05:46:00.617Z,0.35833333333333334
2022-08-26T05:47:01.260Z,0.38611111111111107
2022-08-26T05:48:01.509Z,0.19999999999999998
2022-08-26T05:49:01.439Z,0.23888888888888887
2022-08-26T05:50:01.101Z,0.3972222222222222
2022-08-26T05:51:00.782Z,0.23888888888888887
2022-08-26T05:52:00.482Z,0.31666666666666665
2022-08-26T05:53:00.195Z,0.4361111111111111
2022-08-26T05:53:59.848Z,0.23055555555555554
2022-08-26T05:55:00.557Z,0.4111111111111111
2022-08-26T05:56:00.231Z,0.4361111111111111
2022-08-26T05:56:59.954Z,0.5305555555555556
2022-08-26T05:57:59.668Z,0.7138888888888888
2022-08-26T05:59:00.692Z,0.5555555555555556
2022-08-26T06:00:00.336Z,0.5555555555555556
2022-08-26T06:01:00.978Z,0.2777777777777778
2022-08-26T06:02:00.709Z,0.5027777777777778
2022-08-26T06:03:00.623Z,0.3027777777777778
2022-08-26T06:04:01.575Z,0.15833333333333333
2022-08-26T06:05:01.299Z,0.2777777777777778
2022-08-26T06:06:00.963Z,0.37777777777777777
2022-08-26T06:07:01.405Z,0.3972222222222222
2022-08-26T06:08:00.745Z,0
2022-08-26T06:09:00.916Z,0.35833333333333334
2022-08-26T06:10:28.200Z,0.019444444444444445
2022-08-26T06:11:01.061Z,0.2777777777777778
2022-08-26T06:12:01.447Z,0.3972222222222222
2022-08-26T06:13:04.545Z,0.47777777777777775
2022-08-26T06:14:03.968Z,0.08055555555555555
2022-08-26T06:15:01.161Z,0.2722222222222222
2022-08-26T06:16:00.784Z,0.5166666666666667
2022-08-26T06:17:00.561Z,0.3972222222222222
2022-08-26T06:18:00.415Z,0.2777777777777778
2022-08-26T06:19:00.442Z,0.4361111111111111
2022-08-26T06:20:00.775Z,0.49444444444444446
2022-08-26T06:21:00.788Z,0.3805555555555556
2022-08-26T06:22:00.482Z,0.5555555555555556
2022-08-26T06:23:00.285Z,0.23888888888888887
2022-08-26T06:23:59.999Z,0.2916666666666667
2022-08-26T06:25:00.519Z,0.19999999999999998
2022-08-26T06:26:00.604Z,0.5333333333333333
2022-08-26T06:27:00.448Z,0.47777777777777775
2022-08-26T06:28:00.184Z,0.5166666666666667
2022-08-26T06:29:01.700Z,0.23888888888888887
2022-08-26T06:30:01.387Z,0.47777777777777775
2022-08-26T06:31:02.296Z,0.3111111111111111
2022-08-26T06:32:01.366Z,0.19999999999999998
2022-08-26T06:33:01.083Z,0.2777777777777778
2022-08-26T06:34:00.961Z,0.47777777777777775
2022-08-26T06:35:00.785Z,0.35833333333333334
2022-08-26T06:36:01.465Z,0.03888888888888889
2022-08-26T06:37:01.954Z,0.03888888888888889
2022-08-26T06:38:01.419Z,0.2777777777777778
2022-08-26T06:39:01.182Z,0.35833333333333334
2022-08-26T06:40:00.973Z,0.47777777777777775
2022-08-26T06:41:05.350Z,0.23888888888888887
2022-08-26T06:42:00.678Z,0.11944444444444444
2022-08-26T06:43:01.044Z,0.2777777777777778
2022-08-26T06:44:01.289Z,0.15833333333333333
2022-08-26T06:45:01.944Z,0.5555555555555556
2022-08-26T06:46:09.204Z,0.23888888888888887
2022-08-26T06:47:00.650Z,0.2777777777777778
2022-08-26T06:48:00.360Z,0.31666666666666665
2022-08-26T06:49:00.977Z,0.7944444444444444
2022-08-26T06:50:00.669Z,0.7555555555555555
2022-08-26T06:51:12.454Z,0.31666666666666665
2022-08-26T06:52:00.886Z,0.47777777777777775
2022-08-26T06:53:00.794Z,0.5305555555555556
2022-08-26T06:54:00.505Z,0.25555555555555554
2022-08-26T06:55:00.189Z,0.4361111111111111
2022-08-26T06:55:59.899Z,0.5166666666666667
2022-08-26T06:56:59.583Z,0.42777777777777776
2022-08-26T06:58:01.645Z,0.5555555555555556
2022-08-26T06:59:01.556Z,0.35833333333333334
2022-08-26T07:00:00.995Z,0.31666666666666665
2022-08-26T07:01:09.122Z,0.675
2022-08-26T07:02:01.941Z,0.7638888888888888
2022-08-26T07:03:01.730Z,0.675
2022-08-26T07:04:01.016Z,0.35833333333333334
2022-08-26T07:05:00.690Z,0.5388888888888889
2022-08-26T07:06:00.321Z,0.4361111111111111
2022-08-26T07:07:00.077Z,0.7944444444444444
2022-08-26T07:07:59.750Z,0.31666666666666665
2022-08-26T07:09:01.416Z,0.2777777777777778
2022-08-26T07:10:01.140Z,0.09999999999999999
2022-08-26T07:11:01.061Z,0.6361111111111111
2022-08-26T07:12:00.873Z,0.3972222222222222
2022-08-26T07:13:00.520Z,0.675
2022-08-26T07:14:00.330Z,0.07777777777777778
2022-08-26T07:15:00.785Z,0.2777777777777778
2022-08-26T07:16:03.131Z,0.11944444444444444
2022-08-26T07:17:02.305Z,0.03888888888888889
2022-08-26T07:18:01.278Z,0.31666666666666665
2022-08-26T07:19:01.224Z,0.47777777777777775
2022-08-26T07:20:00.975Z,0.5555555555555556
2022-08-26T07:21:01.015Z,0.35833333333333334
2022-08-26T07:22:00.638Z,0.4722222222222222
2022-08-26T07:23:00.376Z,0.7555555555555555
2022-08-26T07:24:01.754Z,0.47777777777777775
2022-08-26T07:25:01.536Z,0.31666666666666665
2022-08-26T07:26:00.946Z,0.19999999999999998
2022-08-26T07:27:00.749Z,0.8333333333333333
2022-08-26T07:28:00.768Z,0.23888888888888887
2022-08-26T07:29:00.930Z,0.19999999999999998
2022-08-26T07:30:00.582Z,0.42777777777777776
2022-08-26T07:31:00.912Z,0.5166666666666667
2022-08-26T07:32:00.660Z,0.5555555555555556
2022-08-26T07:33:00.344Z,0.9944444444444445
2022-08-26T07:34:00.047Z,0.35833333333333334
2022-08-26T07:35:00.199Z,0.5388888888888889
2022-08-26T07:35:59.850Z,0.2777777777777778
2022-08-26T07:37:00.672Z,0.19999999999999998
2022-08-26T07:38:00.668Z,0.31666666666666665
2022-08-26T07:39:00.698Z,0.35833333333333334
2022-08-26T07:40:00.458Z,0.5555555555555556
2022-08-26T07:41:00.999Z,0.23888888888888887
2022-08-26T07:42:01.130Z,0.15833333333333333
2022-08-26T07:43:00.963Z,0
2022-08-26T07:44:00.689Z,0.2777777777777778
2022-08-26T07:45:00.379Z,0.23888888888888887
2022-08-26T07:46:00.262Z,0.35833333333333334
2022-08-26T07:47:00.207Z,0.25833333333333336
2022-08-26T07:47:59.833Z,0.4527777777777777
2022-08-26T07:49:01.856Z,0.35833333333333334
2022-08-26T07:50:00.962Z,0.35833333333333334
2022-08-26T07:51:00.761Z,0.31666666666666665
2022-08-26T07:52:00.479Z,0.4611111111111111
2022-08-26T07:53:00.124Z,0.1388888888888889
2022-08-26T07:54:00.531Z,0.3972222222222222
2022-08-26T07:55:00.173Z,0.35833333333333334
2022-08-26T07:55:59.877Z,0.35833333333333334
2022-08-26T07:56:59.687Z,0.4083333333333333
2022-08-26T07:58:01.428Z,0.1388888888888889
2022-08-26T07:59:01.475Z,0.31666666666666665
2022-08-26T08:00:01.480Z,0.2777777777777778
2022-08-26T08:01:01.619Z,0.675
2022-08-26T08:02:01.289Z,0.26944444444444443
2022-08-26T08:03:00.948Z,0.4305555555555556
2022-08-26T08:04:00.576Z,0.2777777777777778
2022-08-26T08:05:00.665Z,0.5972222222222222
2022-08-26T08:06:00.459Z,0.5555555555555556
2022-08-26T08:07:00.497Z,0.3472222222222222
2022-08-26T08:08:26.365Z,0.15833333333333333
2022-08-26T08:09:01.315Z,0.31666666666666665
2022-08-26T08:10:01.037Z,0.6361111111111111
2022-08-26T08:11:00.706Z,0.11944444444444444
2022-08-26T08:12:02.432Z,0.11944444444444444
2022-08-26T08:13:01.446Z,0.07222222222222223
2022-08-26T08:14:01.345Z,0.19999999999999998
2022-08-26T08:15:00.745Z,0.23888888888888887
2022-08-26T08:16:01.514Z,0.35833333333333334
2022-08-26T08:17:05.161Z,0.4361111111111111
2022-08-26T08:18:01.093Z,0.23888888888888887
2022-08-26T08:19:00.780Z,0.3972222222222222
2022-08-26T08:20:00.578Z,0.19999999999999998
2022-08-26T08:21:20.931Z,0.23888888888888887
2022-08-26T08:22:17.139Z,0.11944444444444444
2022-08-26T08:23:01.179Z,0
2022-08-26T08:24:00.786Z,0.19999999999999998
2022-08-26T08:25:00.598Z,0.3972222222222222
2022-08-26T08:26:01.309Z,0.3222222222222222
2022-08-26T08:27:12.078Z,0.31666666666666665
2022-08-26T08:28:01.447Z,0.5166666666666667
2022-08-26T08:29:01.134Z,0.8916666666666666
2022-08-26T08:30:00.963Z,0.2777777777777778
2022-08-26T08:31:00.803Z,0.15833333333333333
2022-08-26T08:32:15.377Z,0
2022-08-26T08:33:01.889Z,0.2777777777777778
2022-08-26T08:34:01.588Z,0.5166666666666667
2022-08-26T08:35:00.965Z,0.23888888888888887
2022-08-26T08:36:00.659Z,0.2777777777777778
2022-08-26T08:37:00.382Z,0.31388888888888883
2022-08-26T08:38:00.002Z,0.3972222222222222
2022-08-26T08:39:01.198Z,0.35833333333333334
2022-08-26T08:40:00.934Z,0.8333333333333333
2022-08-26T08:41:00.721Z,0.2777777777777778
2022-08-26T08:42:01.138Z,0.675
2022-08-26T08:43:01.342Z,0.11944444444444444
2022-08-26T08:44:01.233Z,0.2777777777777778
2022-08-26T08:45:00.872Z,0.31666666666666665
2022-08-26T08:46:00.643Z,0.19999999999999998
2022-08-26T08:47:00.999Z,0.31666666666666665
2022-08-26T08:48:00.755Z,0.5972222222222222
2022-08-26T08:49:00.671Z,0.5555555555555556
2022-08-26T08:50:00.343Z,0.23888888888888887
2022-08-26T08:51:00.151Z,0.35833333333333334
2022-08-26T08:52:00.041Z,0
2022-08-26T08:52:59.687Z,0.19999999999999998
2022-08-26T08:54:01.343Z,0.7138888888888888
2022-08-26T08:55:01.362Z,0.5555555555555556
2022-08-26T08:56:01.011Z,0.5972222222222222
2022-08-26T08:57:00.894Z,0.5166666666666667
2022-08-26T08:58:02.481Z,0.15833333333333333
2022-08-26T08:59:00.607Z,0.2972222222222222
2022-08-26T09:00:00.313Z,0.8333333333333333
2022-08-26T09:01:00.179Z,0.5555555555555556
2022-08-26T09:02:00.674Z,0.675
2022-08-26T09:03:00.755Z,0.875
2022-08-26T09:04:00.438Z,0.19999999999999998
2022-08-26T09:05:00.845Z,0.7555555555555555
2022-08-26T09:06:00.598Z,0.11944444444444444
2022-08-26T09:07:01.275Z,0.08055555555555555
2022-08-26T09:08:01.098Z,0
2022-08-26T09:09:00.783Z,0.2777777777777778
2022-08-26T09:10:00.581Z,0.4361111111111111
2022-08-26T09:11:00.473Z,0.19999999999999998
2022-08-26T09:12:00.240Z,0.35833333333333334
2022-08-26T09:12:59.903Z,0.775
2022-08-26T09:14:01.038Z,1.2722222222222221
2022-08-26T09:15:00.716Z,0.3972222222222222
2022-08-26T09:16:00.540Z,0.11944444444444444
2022-08-26T09:17:00.267Z,0.6416666666666667
2022-08-26T09:18:02.815Z,0.10833333333333334
2022-08-26T09:19:01.267Z,0.23888888888888887
2022-08-26T09:20:00.946Z,0.7555555555555555
2022-08-26T09:21:00.644Z,0.4361111111111111
2022-08-26T09:22:00.366Z,0.19999999999999998
2022-08-26T09:23:00.072Z,0.11944444444444444
2022-08-26T09:23:59.708Z,0.09999999999999999
2022-08-26T09:25:01.385Z,0.3972222222222222
2022-08-26T09:26:01.214Z,0.5611111111111111
2022-08-26T09:27:00.782Z,0.5555555555555556
2022-08-26T09:28:00.563Z,0.675
2022-08-26T09:29:01.508Z,0.47777777777777775
2022-08-26T09:30:00.823Z,0.4361111111111111
2022-08-26T09:31:00.647Z,0.6388888888888888
2022-08-26T09:32:00.421Z,0.2777777777777778
2022-08-26T09:33:00.114Z,0.5361111111111111
2022-08-26T09:34:00.746Z,0.23888888888888887
2022-08-26T09:35:00.899Z,0.5166666666666667
2022-08-26T09:36:00.541Z,0.11944444444444444
2022-08-26T09:37:00.204Z,0.15833333333333333
2022-08-26T09:38:00.983Z,0.3333333333333333
2022-08-26T09:39:01.296Z,1.152777777777778
2022-08-26T09:40:01.011Z,0.31666666666666665
2022-08-26T09:41:00.788Z,0.47777777777777775
2022-08-26T09:42:00.503Z,0.23888888888888887
2022-08-26T09:43:00.501Z,0.4888888888888889
2022-08-26T09:44:00.744Z,0.675
2022-08-26T09:45:00.520Z,0.4361111111111111
2022-08-26T09:46:00.404Z,0.7555555555555555
2022-08-26T09:47:00.135Z,0.6277777777777777
2022-08-26T09:48:01.330Z,0.4861111111111111
2022-08-26T09:49:00.942Z,0.5555555555555556
2022-08-26T09:50:00.731Z,0.5833333333333334
2022-08-26T09:51:00.857Z,1.0583333333333333
2022-08-26T09:52:00.690Z,0.4361111111111111
2022-08-26T09:53:01.059Z,0.7027777777777777
2022-08-26T09:54:00.738Z,0.7944444444444444
2022-08-26T09:55:00.466Z,0.35833333333333334
2022-08-26T09:56:00.161Z,1.0722222222222222
2022-08-26T09:56:59.903Z,0.4555555555555555
2022-08-26T09:58:07.774Z,0.2777777777777778
2022-08-26T09:59:00.595Z,0.11944444444444444
2022-08-26T10:00:00.252Z,0.9944444444444445
2022-08-26T10:01:00.170Z,0.31666666666666665
2022-08-26T10:03:04.164Z,0.31666666666666665
2022-08-26T10:04:00.781Z,0.1361111111111111
2022-08-26T10:05:04.457Z,0.47777777777777775
2022-08-26T10:06:00.666Z,0.6055555555555556
2022-08-26T10:07:00.320Z,0.8333333333333333
2022-08-26T10:08:05.613Z,0.7555555555555555
2022-08-26T10:09:02.727Z,0.586111111111111
2022-08-26T10:10:01.073Z,0.19999999999999998
2022-08-26T10:11:00.945Z,0.2777777777777778
2022-08-26T10:12:00.775Z,0.2777777777777778
2022-08-26T10:13:10.083Z,0.47777777777777775
2022-08-26T10:14:01.106Z,0.8416666666666666
2022-08-26T10:15:00.820Z,0.7138888888888888
2022-08-26T10:16:00.498Z,0.675
2022-08-26T10:17:00.732Z,0.09999999999999999
2022-08-26T10:18:12.150Z,1.0333333333333334
2022-08-26T10:19:01.573Z,0.35833333333333334
2022-08-26T10:20:00.826Z,0.7555555555555555
2022-08-26T10:21:01.243Z,0.3972222222222222
2022-08-26T10:22:00.901Z,0.961111111111111
2022-08-26T10:23:15.888Z,0.5972222222222222
2022-08-26T10:24:00.657Z,0.9944444444444445
2022-08-26T10:25:00.794Z,0.7666666666666666
2022-08-26T10:26:00.690Z,1.152777777777778
2022-08-26T10:27:00.394Z,0.9138888888888889
2022-08-26T10:28:00.199Z,0.7555555555555555
2022-08-26T10:28:59.818Z,0.6361111111111111
2022-08-26T10:30:01.496Z,0.35833333333333334
2022-08-26T10:31:01.316Z,0.8333333333333333
2022-08-26T10:32:02.516Z,0.6361111111111111
2022-08-26T10:33:01.433Z,0.8333333333333333
2022-08-26T10:34:01.135Z,0.5166666666666667
2022-08-26T10:35:01.805Z,0.5166666666666667
2022-08-26T10:36:00.881Z,0.19999999999999998
2022-08-26T10:37:16.215Z,0.8944444444444445
2022-08-26T10:38:00.539Z,0.6388888888888888